Time;durP1;ratioP1;P1;durP2;ratioP2;P2;SDS_P1;SDS_P2;PMS_P1;PMS_P2;Temp;Humidity;BMP_temperature;BMP_pressure;BME280_temperature;BME280_humidity;BME280_pressure;Samples;Min_cycle;Max_cycle;Signal;HPM_P1;HPM_P2
2021/04/07 20:59:31;;;;;;;17.23;8.45;;;;;;;-0.56;100.00;98925.02;1676699;83;68660;-74
2021/04/07 21:13:11;;;;;;;18.75;8.18;;;;;;;-0.23;84.33;98534.42;1800784;78;22641;-74
2021/04/07 21:15:57;;;;;;;24.87;9.75;;;;;;;-0.30;84.31;98542.00;1771488;80;21161;-72
2021/04/07 21:18:45;;;;;;;15.23;8.43;;;;;;;-0.33;84.31;98540.66;1768319;80;21865;-71
2021/04/07 21:21:24;;;;;;;18.07;8.73;;;;;;;-0.32;84.56;98545.52;1775368;80;21148;-71
2021/04/07 21:25:01;;;;;;;18.10;8.75;;;;;;;-0.28;84.48;98551.49;1669541;85;21073;-73
2021/04/07 21:27:49;;;;;;;15.83;8.13;;;;;;;-0.25;84.44;98555.54;1653820;86;21197;-71
2021/04/07 21:35:34;;;;;;;13.70;7.15;;;;;;;-0.25;84.40;98569.08;1563620;91;21194;-71
2021/04/07 21:42:18;;;;;;;11.93;6.50;;;;;;;-0.18;84.47;98575.05;1507102;94;21173;-73
2021/04/07 21:44:46;;;;;;;10.98;6.37;;;;;;;-0.18;84.53;98578.28;1514831;94;21235;-74
2021/04/07 21:47:14;;;;;;;14.07;6.47;;;;;;;-0.16;84.51;98577.48;1515342;94;21241;-75
2021/04/07 21:49:42;;;;;;;14.58;6.70;;;;;;;-0.15;84.56;98581.80;1515362;93;21387;-74
2021/04/07 21:52:09;;;;;;;12.13;6.17;;;;;;;-0.13;84.54;98576.92;1516303;94;21171;-72
2021/04/07 21:54:37;;;;;;;20.68;6.42;;;;;;;-0.13;84.45;98584.52;1517265;91;21275;-76
2021/04/07 21:57:05;;;;;;;15.28;5.97;;;;;;;-0.16;84.30;98592.38;1574885;90;21198;-73
2021/04/07 21:59:33;;;;;;;12.33;6.25;;;;;;;-0.22;84.38;98594.82;1569909;90;21255;-72
2021/04/07 22:02:01;;;;;;;11.40;5.85;;;;;;;-0.24;84.53;98592.39;1598136;87;21858;-75
2021/04/07 22:04:28;;;;;;;9.13;5.55;;;;;;;-0.26;84.59;98593.19;1646480;87;21130;-76
2021/04/07 22:06:59;;;;;;;13.22;5.47;;;;;;;-0.27;84.62;98601.84;1618609;88;21204;-75
2021/04/07 22:09:26;;;;;;;10.63;5.45;;;;;;;-0.29;84.66;98612.13;1647308;87;21985;-74
2021/04/07 22:11:53;;;;;;;9.20;4.42;;;;;;;-0.31;84.72;98608.91;1645810;86;21201;-73
2021/04/07 22:14:22;;;;;;;8.78;4.87;;;;;;;-0.31;84.71;98603.48;1621404;87;21853;-76
2021/04/07 22:16:49;;;;;;;12.50;4.85;;;;;;;-0.30;84.76;98615.93;1643164;87;21188;-74
2021/04/07 22:19:18;;;;;;;7.45;4.05;;;;;;;-0.31;84.77;98618.38;1608117;88;21152;-74
2021/04/07 22:21:45;;;;;;;11.45;4.85;;;;;;;-0.33;84.72;98616.48;1617318;88;21581;-73
2021/04/07 22:24:18;;;;;;;9.55;4.20;;;;;;;-0.30;84.72;98618.64;1646028;86;21142;-75
2021/04/07 22:26:48;;;;;;;7.78;4.33;;;;;;;-0.29;84.63;98621.61;1618751;88;21288;-73
2021/04/07 22:29:18;;;;;;;8.13;4.55;;;;;;;-0.28;84.51;98625.95;1628916;87;21153;-74
2021/04/07 22:31:46;;;;;;;8.63;5.10;;;;;;;-0.29;84.38;98625.67;1645256;86;21150;-75
2021/04/07 22:34:13;;;;;;;8.90;5.17;;;;;;;-0.30;84.32;98628.11;1618921;87;21367;-75
2021/04/07 22:36:42;;;;;;;11.15;5.33;;;;;;;-0.31;84.27;98626.50;1616126;87;21165;-74
2021/04/07 22:39:17;;;;;;;8.38;4.65;;;;;;;-0.32;84.11;98631.63;1642870;87;21213;-75
2021/04/07 22:41:46;;;;;;;8.70;5.03;;;;;;;-0.35;84.10;98633.52;1617201;86;21571;-75
2021/04/07 22:44:14;;;;;;;8.83;4.87;;;;;;;-0.35;84.15;98634.06;1624993;87;21313;-75
2021/04/07 22:46:45;;;;;;;9.13;5.00;;;;;;;-0.36;84.09;98631.91;1648554;86;21625;-76
2021/04/07 22:49:12;;;;;;;7.58;4.33;;;;;;;-0.37;84.10;98637.03;1624917;87;21163;-76
2021/04/07 22:51:41;;;;;;;9.45;5.12;;;;;;;-0.36;84.02;98638.68;1645999;86;21791;-76
2021/04/07 22:54:09;;;;;;;8.38;4.83;;;;;;;-0.38;83.97;98643.02;1623340;87;21198;-76
2021/04/07 22:56:38;;;;;;;9.25;5.37;;;;;;;-0.36;83.98;98642.74;1619504;87;21623;-75
2021/04/07 22:59:05;;;;;;;12.40;4.70;;;;;;;-0.36;83.86;98644.09;1619180;88;21575;-77
2021/04/07 23:01:33;;;;;;;11.65;4.97;;;;;;;-0.37;83.80;98645.16;1622146;87;21195;-77
2021/04/07 23:04:01;;;;;;;9.95;4.83;;;;;;;-0.38;83.71;98647.07;1646316;86;21594;-76
2021/04/07 23:06:29;;;;;;;8.23;4.97;;;;;;;-0.40;83.72;98645.17;1623244;87;21604;-74
2021/04/07 23:08:56;;;;;;;9.95;4.78;;;;;;;-0.39;83.71;98650.02;1591237;87;21205;-76
2021/04/07 23:11:24;;;;;;;10.08;4.75;;;;;;;-0.42;83.62;98650.03;1623067;87;21198;-75
2021/04/07 23:13:51;;;;;;;9.40;4.75;;;;;;;-0.43;83.67;98649.77;1646335;86;21118;-75
2021/04/07 23:16:18;;;;;;;11.68;5.53;;;;;;;-0.43;83.59;98653.01;1625007;87;22211;-73
2021/04/07 23:18:46;;;;;;;9.55;4.78;;;;;;;-0.46;83.53;98657.05;1620920;87;21153;-73
2021/04/07 23:21:14;;;;;;;10.75;4.80;;;;;;;-0.47;83.59;98656.79;1624674;87;21205;-75
2021/04/07 23:23:41;;;;;;;9.75;4.58;;;;;;;-0.47;83.65;98660.84;1648413;86;21153;-75
2021/04/07 23:26:09;;;;;;;10.23;4.65;;;;;;;-0.47;83.47;98664.09;1623709;87;21675;-75
2021/04/07 23:28:36;;;;;;;9.05;5.22;;;;;;;-0.47;83.46;98666.80;1645737;86;21221;-75
2021/04/07 23:31:04;;;;;;;8.83;5.00;;;;;;;-0.48;83.33;98671.41;1623929;87;21195;-75
2021/04/07 23:33:32;;;;;;;10.95;4.78;;;;;;;-0.52;83.28;98663.02;1619884;87;21126;-73
2021/04/07 23:35:59;;;;;;;11.20;5.35;;;;;;;-0.55;83.32;98667.61;1624925;87;21194;-75
2021/04/07 23:38:27;;;;;;;13.50;5.50;;;;;;;-0.56;83.43;98664.61;1620632;87;21665;-75
2021/04/07 23:40:54;;;;;;;12.80;6.33;;;;;;;-0.56;83.43;98671.38;1631054;87;21724;-75
2021/04/07 23:43:21;;;;;;;13.10;5.62;;;;;;;-0.55;83.41;98664.91;1673670;85;21129;-73
2021/04/07 23:45:49;;;;;;;9.33;5.10;;;;;;;-0.54;83.35;98666.52;1620509;88;21133;-75
2021/04/07 23:48:17;;;;;;;10.00;5.10;;;;;;;-0.53;83.30;98672.76;1689153;84;21189;-74
2021/04/07 23:50:44;;;;;;;7.80;4.85;;;;;;;-0.54;83.23;98669.76;1652394;86;21177;-74
2021/04/07 23:53:11;;;;;;;11.20;5.87;;;;;;;-0.57;83.23;98675.70;1626927;88;21881;-76
2021/04/07 23:55:40;;;;;;;11.08;5.35;;;;;;;-0.58;83.19;98678.95;1673577;84;21184;-74
2021/04/07 23:58:08;;;;;;;16.85;6.28;;;;;;;-0.58;83.20;98674.89;1621013;88;21187;-74
